createdAt,value
2018-04-23T00:00:59.532Z,15.70
2018-04-23T00:03:27.064Z,15.70
2018-04-23T00:05:55.383Z,15.90
2018-04-23T00:08:22.915Z,15.80
2018-04-23T00:10:51.228Z,15.90
2018-04-23T00:13:18.760Z,15.80
2018-04-23T00:15:46.293Z,15.80
2018-04-23T00:18:13.848Z,15.80
2018-04-23T00:20:41.376Z,15.80
2018-04-23T00:23:08.940Z,15.80
2018-04-23T00:25:36.472Z,15.80
2018-04-23T00:28:04.028Z,15.70
2018-04-23T00:30:31.553Z,15.70
2018-04-23T00:32:59.118Z,15.70
2018-04-23T00:35:27.412Z,15.70
2018-04-23T00:37:55.733Z,15.70
2018-04-23T00:40:23.253Z,15.70
2018-04-23T00:42:50.811Z,15.80
2018-04-23T00:45:18.344Z,15.90
2018-04-23T00:47:45.901Z,15.80
2018-04-23T00:50:13.428Z,15.70
2018-04-23T00:52:40.976Z,15.70
2018-04-23T00:55:08.505Z,15.70
2018-04-23T00:57:36.829Z,15.70
2018-04-23T01:00:04.358Z,15.70
2018-04-23T01:02:31.912Z,15.70
2018-04-23T01:04:59.438Z,15.70
2018-04-23T01:07:43.552Z,15.70
2018-04-23T01:10:11.072Z,15.70
2018-04-23T01:12:38.606Z,15.70
2018-04-23T01:15:06.158Z,15.70
2018-04-23T01:17:33.689Z,15.80
2018-04-23T01:20:01.236Z,15.80
2018-04-23T01:22:28.760Z,15.70
2018-04-23T01:24:57.078Z,15.60
2018-04-23T01:27:24.603Z,15.60
2018-04-23T01:29:52.912Z,15.60
2018-04-23T01:32:20.437Z,15.50
2018-04-23T01:34:52.429Z,15.60
2018-04-23T01:37:19.956Z,15.60
2018-04-23T01:39:48.277Z,15.50
2018-04-23T01:42:15.805Z,15.50
2018-04-23T01:44:43.357Z,15.40
2018-04-23T01:47:11.665Z,15.30
2018-04-23T01:49:39.216Z,15.30
2018-04-23T01:52:06.745Z,15.30
2018-04-23T01:54:35.062Z,15.30
2018-04-23T01:57:02.596Z,15.30
2018-04-23T01:59:30.148Z,15.30
2018-04-23T02:01:58.443Z,15.50
2018-04-23T02:04:25.990Z,15.40
2018-04-23T02:06:53.548Z,15.50
2018-04-23T02:09:21.832Z,15.70
2018-04-23T02:11:49.389Z,15.70
2018-04-23T02:14:17.681Z,15.80
2018-04-23T02:16:45.238Z,15.80
2018-04-23T02:19:12.764Z,15.80
2018-04-23T02:21:40.321Z,15.80
2018-04-23T02:24:07.850Z,15.70
2018-04-23T02:26:36.173Z,15.70
2018-04-23T02:29:04.466Z,15.60
2018-04-23T02:31:32.020Z,15.60
2018-04-23T02:33:59.565Z,15.60
2018-04-23T02:36:27.894Z,15.50
2018-04-23T02:38:55.422Z,15.50
2018-04-23T02:41:22.972Z,15.50
2018-04-23T02:43:51.260Z,15.50
2018-04-23T02:46:18.807Z,15.40
2018-04-23T02:48:47.105Z,15.40
2018-04-23T02:51:14.659Z,15.40
2018-04-23T02:53:42.184Z,15.50
2018-04-23T02:56:09.741Z,15.40
2018-04-23T02:58:38.052Z,15.50
2018-04-23T03:01:05.596Z,15.50
2018-04-23T03:03:33.913Z,15.60
2018-04-23T03:06:01.460Z,15.60
2018-04-23T03:08:28.984Z,15.60
2018-04-23T03:10:57.322Z,15.50
2018-04-23T03:13:24.854Z,15.50
2018-04-23T03:15:52.408Z,15.50
2018-04-23T03:18:19.944Z,15.40
2018-04-23T03:20:48.281Z,15.40
2018-04-23T03:23:15.814Z,15.40
2018-04-23T03:25:43.362Z,15.40
2018-04-23T03:28:10.897Z,15.40
2018-04-23T03:30:38.457Z,15.30
2018-04-23T03:33:05.989Z,15.40
2018-04-23T03:35:33.544Z,15.30
2018-04-23T03:38:01.079Z,15.30
2018-04-23T03:40:28.639Z,15.30
2018-04-23T03:42:56.161Z,15.30
2018-04-23T03:45:24.482Z,15.20
2018-04-23T03:47:52.010Z,15.20
2018-04-23T03:50:20.333Z,15.00
2018-04-23T03:52:47.857Z,15.00
2018-04-23T03:55:15.385Z,15.10
2018-04-23T03:57:42.958Z,15.00
2018-04-23T04:00:11.252Z,15.00
2018-04-23T04:02:38.809Z,14.90
2018-04-23T04:05:07.097Z,15.00
2018-04-23T04:07:34.649Z,15.00
2018-04-23T04:10:02.189Z,14.90
2018-04-23T04:12:42.265Z,14.60
2018-04-23T04:15:21.713Z,14.60
2018-04-23T04:21:02.249Z,14.70
2018-04-23T04:23:29.787Z,14.70
2018-04-23T04:25:57.397Z,14.70
2018-04-23T04:28:24.951Z,14.50
2018-04-23T04:30:53.273Z,14.40
2018-04-23T04:33:20.809Z,14.30
2018-04-23T04:35:48.365Z,14.40
2018-04-23T04:38:16.695Z,14.30
2018-04-23T04:40:44.252Z,14.30
2018-04-23T04:43:11.787Z,14.30
2018-04-23T04:45:39.321Z,14.30
2018-04-23T04:48:06.876Z,14.30
2018-04-23T04:50:35.170Z,14.40
2018-04-23T04:53:02.717Z,14.40
2018-04-23T04:55:30.253Z,14.60
2018-04-23T04:57:57.809Z,14.50
2018-04-23T05:00:26.117Z,14.50
2018-04-23T05:02:53.676Z,14.50
2018-04-23T05:05:21.210Z,14.50
2018-04-23T05:07:49.542Z,14.60
2018-04-23T05:10:17.073Z,14.60
2018-04-23T05:12:44.627Z,14.60
2018-04-23T05:15:12.921Z,14.50
2018-04-23T05:17:40.470Z,14.50
2018-04-23T05:20:08.000Z,14.50
2018-04-23T05:22:35.555Z,14.50
2018-04-23T05:25:03.085Z,14.60
2018-04-23T05:27:30.645Z,14.50
2018-04-23T05:29:58.189Z,14.60
2018-04-23T05:32:25.753Z,14.50
2018-04-23T05:34:53.273Z,14.50
2018-04-23T05:37:21.593Z,14.70
2018-04-23T05:39:49.130Z,14.70
2018-04-23T05:42:16.689Z,14.80
2018-04-23T05:44:44.216Z,14.80
2018-04-23T05:47:11.763Z,14.90
2018-04-23T05:49:40.064Z,15.30
2018-04-23T05:52:08.384Z,15.30
2018-04-23T05:54:35.920Z,15.30
2018-04-23T05:57:03.484Z,15.40
2018-04-23T05:59:31.019Z,15.40
2018-04-23T06:01:59.341Z,15.50
2018-04-23T06:04:26.872Z,15.40
2018-04-23T06:06:55.194Z,15.40
2018-04-23T06:09:22.716Z,15.40
2018-04-23T06:11:50.281Z,15.20
2018-04-23T06:14:17.827Z,15.10
2018-04-23T06:16:45.392Z,15.10
2018-04-23T06:19:12.930Z,15.20
2018-04-23T06:21:41.251Z,15.20
2018-04-23T06:24:08.788Z,15.20
2018-04-23T06:26:36.346Z,15.20
2018-04-23T06:29:03.876Z,15.10
2018-04-23T06:51:26.351Z,15.20
2018-04-23T06:53:53.888Z,15.10
2018-04-23T06:56:21.458Z,15.20
2018-04-23T06:58:48.996Z,15.30
2018-04-23T07:01:16.562Z,15.40
2018-04-23T07:03:44.097Z,15.60
2018-04-23T07:06:11.637Z,15.90
2018-04-23T07:08:39.972Z,16.20
2018-04-23T07:11:07.505Z,16.10
2018-04-23T07:13:35.065Z,16.20
2018-04-23T07:16:02.601Z,16.10
2018-04-23T07:18:30.933Z,16.30
2018-04-23T07:20:58.469Z,16.30
2018-04-23T07:23:26.080Z,16.40
2018-04-23T07:25:54.391Z,16.50
2018-04-23T07:28:21.963Z,16.40
2018-04-23T07:30:49.502Z,16.60
2018-04-23T07:33:17.061Z,16.80
2018-04-23T07:35:44.596Z,16.70
2018-04-23T07:38:12.926Z,16.80
2018-04-23T07:40:40.469Z,16.80
2018-04-23T07:43:08.048Z,16.80
2018-04-23T07:45:35.590Z,16.70
2018-04-23T07:48:03.148Z,16.80
2018-04-23T07:50:30.680Z,16.60
2018-04-23T07:52:58.996Z,17.00
2018-04-23T07:55:26.529Z,17.00
2018-04-23T07:57:54.852Z,17.00
2018-04-23T08:00:22.383Z,17.00
2018-04-23T08:02:49.937Z,17.20
2018-04-23T08:05:17.469Z,17.10
2018-04-23T08:07:45.792Z,17.20
2018-04-23T08:10:13.325Z,17.20
2018-04-23T08:12:40.881Z,17.70
2018-04-23T08:15:09.181Z,18.00
2018-04-23T08:17:36.741Z,18.00
2018-04-23T08:20:04.274Z,18.00
2018-04-23T08:22:32.593Z,18.90
2018-04-23T08:25:00.125Z,18.90
2018-04-23T08:27:27.677Z,18.90
2018-04-23T08:29:55.986Z,18.80
2018-04-23T08:32:23.548Z,18.80
2018-04-23T08:34:51.076Z,18.70
2018-04-23T08:37:18.637Z,19.10
2018-04-23T08:39:46.169Z,18.70
2018-04-23T08:42:13.735Z,18.40
2018-04-23T08:44:42.033Z,18.40
2018-04-23T08:47:09.597Z,18.40
2018-04-23T08:49:37.139Z,18.50
2018-04-23T08:52:04.688Z,18.50
2018-04-23T08:54:32.246Z,18.60
2018-04-23T08:56:59.773Z,19.00
2018-04-23T08:59:27.329Z,19.00
2018-04-23T09:01:54.860Z,18.70
2018-04-23T09:04:22.414Z,18.80
2018-04-23T09:06:49.949Z,18.80
2018-04-23T09:09:18.273Z,19.50
2018-04-23T09:11:45.848Z,19.40
2018-04-23T09:14:13.384Z,19.70
2018-04-23T09:16:40.920Z,19.80
2018-04-23T09:19:09.233Z,19.90
2018-04-23T09:21:36.766Z,19.90
2018-04-23T09:24:04.317Z,19.70
2018-04-23T09:26:32.608Z,19.30
2018-04-23T09:29:00.160Z,19.20
2018-04-23T09:31:28.463Z,19.20
2018-04-23T09:33:56.012Z,19.10
2018-04-23T09:36:23.539Z,19.40
2018-04-23T09:38:51.860Z,19.80
2018-04-23T09:41:19.402Z,19.80
2018-04-23T09:43:46.941Z,20.00
2018-04-23T09:46:15.255Z,20.50
2018-04-23T09:48:42.780Z,20.50
2018-04-23T09:51:11.103Z,20.50
2018-04-23T09:53:38.642Z,20.50
2018-04-23T09:56:06.202Z,20.40
2018-04-23T09:58:33.761Z,19.90
2018-04-23T10:01:01.310Z,20.30
2018-04-23T10:03:35.447Z,20.70
2018-04-23T10:06:03.070Z,20.70
2018-04-23T10:08:30.564Z,21.30
2018-04-23T10:10:58.120Z,21.90
2018-04-23T10:13:25.649Z,21.90
2018-04-23T10:15:53.976Z,21.90
2018-04-23T10:18:21.505Z,21.90
2018-04-23T10:20:49.065Z,21.30
2018-04-23T10:23:16.607Z,22.40
2018-04-23T10:25:44.928Z,22.70
2018-04-23T10:28:12.461Z,22.70
2018-04-23T10:30:40.028Z,22.40
2018-04-23T10:33:07.581Z,21.30
2018-04-23T10:35:35.143Z,20.80
2018-04-23T10:38:02.673Z,20.90
2018-04-23T10:40:30.232Z,21.10
2018-04-23T10:42:57.761Z,20.80
2018-04-23T10:45:26.131Z,21.80
2018-04-23T10:47:54.412Z,22.00
2018-04-23T10:50:21.937Z,21.90
2018-04-23T10:52:49.497Z,22.30
2018-04-23T10:55:17.029Z,21.90
2018-04-23T10:57:44.584Z,21.60
2018-04-23T11:00:12.112Z,21.80
2018-04-23T11:02:39.670Z,21.40
2018-04-23T11:05:07.202Z,21.50
2018-04-23T11:07:34.761Z,21.20
2018-04-23T11:10:02.300Z,20.70
2018-04-23T11:12:30.625Z,20.70
2018-04-23T11:14:58.144Z,20.60
2018-04-23T11:17:25.720Z,20.60
2018-04-23T11:19:53.253Z,20.80
2018-04-23T11:22:21.575Z,20.80
2018-04-23T11:24:49.123Z,20.80
2018-04-23T11:27:16.679Z,20.70
2018-04-23T11:29:44.200Z,20.40
2018-04-23T11:32:11.729Z,20.30
2018-04-23T11:34:39.284Z,20.30
2018-04-23T11:37:06.810Z,20.00
2018-04-23T11:39:34.365Z,20.10
2018-04-23T11:42:01.908Z,20.40
2018-04-23T11:44:30.229Z,20.10
2018-04-23T11:46:57.760Z,20.00
2018-04-23T11:49:25.324Z,20.30
2018-04-23T11:51:52.852Z,20.40
2018-04-23T11:54:20.412Z,20.10
2018-04-23T11:56:47.944Z,20.30
2018-04-23T11:59:15.506Z,20.80
2018-04-23T12:01:43.058Z,21.30
2018-04-23T12:04:10.617Z,20.90
2018-04-23T12:06:38.145Z,21.40
2018-04-23T12:09:06.453Z,21.30
2018-04-23T12:11:33.984Z,21.30
2018-04-23T12:14:01.577Z,20.90
2018-04-23T12:16:29.881Z,20.90
2018-04-23T12:18:57.441Z,20.90
2018-04-23T12:21:24.970Z,20.60
2018-04-23T12:23:52.516Z,20.50
2018-04-23T12:26:20.045Z,20.40
2018-04-23T12:28:48.365Z,20.40
2018-04-23T12:31:15.929Z,20.40
2018-04-23T12:33:43.491Z,20.30
2018-04-23T12:36:11.015Z,20.30
2018-04-23T12:38:38.565Z,20.10
2018-04-23T12:41:06.862Z,20.50
2018-04-23T12:43:34.413Z,20.50
2018-04-23T12:46:01.953Z,20.40
2018-04-23T12:48:30.285Z,20.50
2018-04-23T12:50:57.866Z,20.50
2018-04-23T12:53:25.392Z,20.60
2018-04-23T12:55:52.924Z,20.50
2018-04-23T12:58:20.472Z,20.90
2018-04-23T13:00:48.772Z,21.10
2018-04-23T13:03:16.325Z,21.10
2018-04-23T13:05:43.853Z,21.50
2018-04-23T13:08:11.409Z,21.20
2018-04-23T13:10:38.983Z,21.20
2018-04-23T13:13:07.303Z,20.90
2018-04-23T13:15:34.829Z,20.90
2018-04-23T13:18:03.153Z,20.80
2018-04-23T13:20:30.673Z,20.80
2018-04-23T13:22:58.228Z,21.30
2018-04-23T13:25:25.776Z,21.10
2018-04-23T13:27:54.110Z,21.10
2018-04-23T13:30:21.638Z,21.10
2018-04-23T13:32:49.192Z,20.70
2018-04-23T13:35:16.721Z,20.70
2018-04-23T13:37:44.249Z,21.10
2018-04-23T13:40:11.805Z,20.80
2018-04-23T13:42:39.356Z,20.50
2018-04-23T13:45:06.901Z,20.40
2018-04-23T13:47:34.424Z,20.80
2018-04-23T13:50:02.754Z,20.50
2018-04-23T13:52:30.288Z,20.50
2018-04-23T13:54:57.851Z,20.50
2018-04-23T13:57:25.378Z,20.40
2018-04-23T13:59:52.932Z,20.60
2018-04-23T14:02:20.466Z,20.50
2018-04-23T14:04:48.026Z,20.50
2018-04-23T14:07:15.557Z,20.50
2018-04-23T14:09:43.110Z,20.10
2018-04-23T14:12:10.632Z,20.20
2018-04-23T14:14:38.187Z,20.20
2018-04-23T14:17:05.709Z,20.10
2018-04-23T14:19:33.263Z,20.10
2018-04-23T14:22:00.789Z,20.10
2018-04-23T14:24:29.116Z,19.90
2018-04-23T14:26:56.669Z,19.90
2018-04-23T14:29:24.228Z,20.20
2018-04-23T14:31:51.759Z,20.10
2018-04-23T14:34:19.312Z,20.40
2018-04-23T14:36:47.609Z,20.20
2018-04-23T14:39:15.165Z,20.20
2018-04-23T14:41:42.693Z,20.70
2018-04-23T14:44:11.013Z,19.90
2018-04-23T14:46:38.542Z,19.90
2018-04-23T14:49:06.866Z,20.20
2018-04-23T14:51:34.394Z,20.20
2018-04-23T14:54:01.948Z,20.10
2018-04-23T14:56:29.477Z,20.30
2018-04-23T14:58:57.033Z,20.30
2018-04-23T15:01:24.565Z,20.30
2018-04-23T15:03:52.125Z,20.20
2018-04-23T15:06:19.663Z,20.50
2018-04-23T15:08:47.217Z,20.90
2018-04-23T15:11:14.749Z,21.00
2018-04-23T15:13:43.069Z,20.90
2018-04-23T15:16:10.595Z,20.80
2018-04-23T15:18:38.918Z,21.00
2018-04-23T15:21:06.445Z,20.90
2018-04-23T15:23:34.000Z,21.00
2018-04-23T15:26:01.526Z,20.60
2018-04-23T15:28:29.081Z,20.20
2018-04-23T15:30:56.612Z,20.30
2018-04-23T15:33:24.173Z,19.90
2018-04-23T15:35:51.716Z,19.80
2018-04-23T15:38:19.278Z,19.70
2018-04-23T15:40:46.801Z,19.70
2018-04-23T15:43:15.119Z,19.50
2018-04-23T15:45:42.663Z,19.50
2018-04-23T15:48:10.184Z,19.20
2018-04-23T15:50:38.529Z,19.10
2018-04-23T15:53:06.061Z,19.10
2018-04-23T15:55:33.612Z,19.10
2018-04-23T15:58:01.145Z,18.90
2018-04-23T16:00:28.697Z,19.00
2018-04-23T16:02:56.229Z,18.90
2018-04-23T16:05:23.876Z,18.90
2018-04-23T16:07:51.409Z,18.70
2018-04-23T16:10:18.958Z,18.80
2018-04-23T16:12:47.245Z,18.80
2018-04-23T16:15:14.799Z,18.80
2018-04-23T16:17:43.097Z,18.60
2018-04-23T16:20:10.649Z,18.60
2018-04-23T16:22:38.172Z,18.80
2018-04-23T16:25:05.725Z,18.80
2018-04-23T16:27:33.255Z,18.80
2018-04-23T16:30:00.847Z,18.80
2018-04-23T16:32:28.359Z,18.80
2018-04-23T16:34:55.914Z,18.80
2018-04-23T16:37:23.441Z,18.60
2018-04-23T16:39:51.825Z,18.60
2018-04-23T16:42:19.309Z,18.50
2018-04-23T16:44:50.542Z,18.70
2018-04-23T16:47:14.393Z,18.70
2018-04-23T16:49:42.722Z,18.70
2018-04-23T16:52:10.257Z,18.60
2018-04-23T16:54:37.818Z,18.60
2018-04-23T16:57:05.352Z,18.60
2018-04-23T16:59:33.670Z,18.50
2018-04-23T17:02:01.201Z,18.50
2018-04-23T17:04:29.525Z,19.10
2018-04-23T17:06:57.055Z,19.00
2018-04-23T17:09:24.621Z,19.10
2018-04-23T17:11:52.158Z,18.50
2018-04-23T17:14:20.485Z,18.20
2018-04-23T17:16:48.013Z,18.10
2018-04-23T17:19:15.566Z,18.00
2018-04-23T17:21:43.859Z,17.70
2018-04-23T17:24:11.409Z,17.70
2018-04-23T17:26:38.940Z,17.80
2018-04-23T17:29:07.252Z,17.60
2018-04-23T17:31:34.782Z,17.60
2018-04-23T17:34:03.093Z,17.20
2018-04-23T17:36:30.616Z,17.20
2018-04-23T17:38:58.940Z,17.30
2018-04-23T17:41:26.472Z,17.30
2018-04-23T17:43:54.785Z,16.80
2018-04-23T17:46:22.318Z,16.80
2018-04-23T17:48:49.874Z,16.90
2018-04-23T17:51:17.419Z,16.70
2018-04-23T17:53:45.713Z,16.50
2018-04-23T17:56:13.261Z,16.40
2018-04-23T17:58:41.557Z,16.30
2018-04-23T18:01:09.109Z,16.20
2018-04-23T18:03:36.645Z,16.10
2018-04-23T18:06:04.960Z,16.00
2018-04-23T18:08:32.492Z,16.00
2018-04-23T18:11:00.820Z,15.90
2018-04-23T18:13:29.116Z,15.90
2018-04-23T18:15:56.665Z,15.80
2018-04-23T18:18:24.187Z,15.70
2018-04-23T18:20:51.735Z,15.60
2018-04-23T18:23:19.270Z,15.40
2018-04-23T18:25:47.588Z,15.50
2018-04-23T18:28:15.115Z,15.40
2018-04-23T18:30:43.433Z,15.40
2018-04-23T18:33:10.962Z,15.40
2018-04-23T18:35:39.288Z,15.20
2018-04-23T18:38:07.579Z,15.20
2018-04-23T18:40:35.123Z,15.10
2018-04-23T18:43:02.650Z,15.20
2018-04-23T18:45:30.205Z,15.20
2018-04-23T18:47:57.738Z,15.10
2018-04-23T18:50:25.292Z,15.00
2018-04-23T18:52:52.820Z,15.00
2018-04-23T18:55:20.373Z,14.90
2018-04-23T18:57:47.897Z,14.70
2018-04-23T19:00:16.216Z,14.60
2018-04-23T19:02:43.745Z,14.60
2018-04-23T19:05:11.304Z,14.60
2018-04-23T19:07:38.832Z,14.60
2018-04-23T19:10:07.162Z,14.40
2018-04-23T19:12:34.685Z,14.40
2018-04-23T19:15:02.997Z,14.30
2018-04-23T19:17:30.516Z,14.20
2018-04-23T19:19:58.838Z,14.30
2018-04-23T19:22:26.388Z,14.20
2018-04-23T19:24:53.947Z,14.30
2018-04-23T19:27:21.556Z,14.20
2018-04-23T19:29:49.052Z,14.20
2018-04-23T19:32:16.581Z,14.10
2018-04-23T19:34:44.143Z,14.00
2018-04-23T19:37:11.664Z,14.00
2018-04-23T19:39:39.214Z,14.10
2018-04-23T19:42:06.742Z,13.80
2018-04-23T19:44:35.052Z,13.60
2018-04-23T19:47:02.589Z,13.60
2018-04-23T19:49:30.145Z,13.70
2018-04-23T19:51:57.670Z,13.60
2018-04-23T19:54:25.225Z,13.50
2018-04-23T19:56:52.753Z,13.40
2018-04-23T19:59:20.299Z,13.30
2018-04-23T20:01:47.821Z,13.30
2018-04-23T20:04:16.132Z,13.40
2018-04-23T20:06:43.763Z,13.40
2018-04-23T20:09:11.231Z,13.30
2018-04-23T20:11:39.542Z,13.10
2018-04-23T20:14:07.093Z,13.10
2018-04-23T20:16:34.643Z,13.00
2018-04-23T20:19:02.177Z,12.90
2018-04-23T20:21:30.496Z,12.80
2018-04-23T20:23:58.344Z,12.70
2018-04-23T20:26:26.430Z,12.60
2018-04-23T20:28:53.955Z,12.50
2018-04-23T20:31:22.280Z,12.40
2018-04-23T20:33:49.815Z,12.40
2018-04-23T20:36:17.373Z,12.30
2018-04-23T20:38:44.896Z,12.30
2018-04-23T20:41:13.227Z,12.40
2018-04-23T20:43:40.752Z,12.40
2018-04-23T20:46:09.069Z,12.30
2018-04-23T20:48:36.597Z,12.30
2018-04-23T20:51:04.919Z,12.30
2018-04-23T20:53:32.440Z,12.30
2018-04-23T20:55:59.999Z,12.30
2018-04-23T20:58:27.530Z,12.40
2018-04-23T21:00:55.083Z,12.50
2018-04-23T21:03:22.627Z,12.60
2018-04-23T21:05:50.354Z,12.60
2018-04-23T21:08:17.881Z,12.60
2018-04-23T21:10:46.205Z,12.40
2018-04-23T21:13:13.736Z,12.40
2018-04-23T21:15:42.113Z,12.40
2018-04-23T21:18:10.412Z,12.40
2018-04-23T21:20:37.956Z,12.40
2018-04-23T21:23:05.487Z,12.40
2018-04-23T21:25:33.805Z,12.30
2018-04-23T21:28:01.337Z,12.30
2018-04-23T21:30:29.652Z,12.20
2018-04-23T21:32:57.177Z,12.20
2018-04-23T21:35:25.492Z,12.10
2018-04-23T21:37:53.012Z,12.00
2018-04-23T21:40:21.330Z,12.00
2018-04-23T21:42:48.857Z,12.00
2018-04-23T21:45:17.176Z,12.00
2018-04-23T21:47:44.697Z,12.00
2018-04-23T21:50:12.258Z,11.90
2018-04-23T21:52:39.793Z,11.90
2018-04-23T21:55:07.350Z,11.90
2018-04-23T21:57:35.410Z,11.80
2018-04-23T22:00:02.972Z,11.80
2018-04-23T22:02:30.554Z,11.70
2018-04-23T22:04:58.082Z,11.70
2018-04-23T22:07:25.633Z,11.60
2018-04-23T22:09:53.193Z,11.60
2018-04-23T22:12:20.720Z,11.60
2018-04-23T22:14:48.273Z,11.50
2018-04-23T22:17:15.836Z,11.50
2018-04-23T22:19:43.369Z,11.50
2018-04-23T22:22:11.686Z,11.70
2018-04-23T22:24:39.213Z,11.70
2018-04-23T22:27:07.534Z,11.70
2018-04-23T22:29:35.078Z,11.70
2018-04-23T22:32:02.632Z,11.70
2018-04-23T22:34:30.160Z,11.60
2018-04-23T22:36:58.476Z,11.50
2018-04-23T22:39:26.022Z,11.50
2018-04-23T22:41:53.576Z,11.50
2018-04-23T22:44:21.869Z,11.50
2018-04-23T22:46:49.429Z,11.50
2018-04-23T22:49:16.951Z,11.50
2018-04-23T22:51:44.536Z,11.50
2018-04-23T22:54:12.829Z,11.40
2018-04-23T22:56:40.378Z,11.40
2018-04-23T22:59:07.909Z,11.40
2018-04-23T23:01:35.453Z,11.40
2018-04-23T23:04:02.990Z,11.40
2018-04-23T23:06:30.550Z,11.40
2018-04-23T23:08:58.081Z,11.40
2018-04-23T23:11:25.641Z,11.30
2018-04-23T23:13:53.164Z,11.30
2018-04-23T23:16:20.750Z,11.20
2018-04-23T23:18:49.023Z,11.20
2018-04-23T23:21:17.340Z,11.10
2018-04-23T23:23:44.861Z,11.10
2018-04-23T23:26:13.180Z,11.10
2018-04-23T23:28:40.713Z,11.10
2018-04-23T23:31:08.268Z,11.10
2018-04-23T23:33:35.794Z,11.10
2018-04-23T23:36:04.125Z,11.00
2018-04-23T23:38:31.665Z,11.00
2018-04-23T23:40:59.236Z,10.90
2018-04-23T23:43:26.767Z,10.80
2018-04-23T23:45:55.098Z,10.80
2018-04-23T23:48:22.620Z,10.80
2018-04-23T23:50:50.176Z,10.80
2018-04-23T23:53:17.709Z,10.70
2018-04-23T23:55:45.233Z,10.70
2018-04-23T23:58:12.782Z,10.70
